»·PEaware :: N588VA KJAC-KTEX

N588VA :: KJAC-KTEX

FLIGHT INFORMATION

Flight Status: Arrived
Operator: Privately registered:
United States
More flights under this callsign
Pilot: Sam U. (25567)
Aircraft: CESSNA 510 CITATION MUSTANG
(C510)
More flights by this aircraft type
Origin: KJAC Jackson Hole
United States
Destination: KTEX Telluride Regl
United States
More flights between these airports :: More routes between these airports
Route: +ALPIN2 KICNE DCT JNC DCT ETL DCT
File this flight plan on PilotEdge
Remarks:
Altitude:
(Current/Filed)
190ft
Speed:
(Current/Filed)
250kts
Departed: 22-Aug-19 05:15 PM
Arrived: 22-Aug-19 06:29 PM
Distance/Time
Traveled:
363nm/1:14
Distance/Time
To Go:
Arrived

Flight Plot

Page will automatically refresh every two minutes.

Flight plan parsing failed; only flown route is shown


Map Options




Map Legend


Flown Route
Filed Route
Departure Airport
Arrival Airport
Navaid (VOR, NDB)
Fix

Horizontal Profiles

Position Reports

Time Latitude Longitude Heading Altitude Ground
Speed
22-Aug-19 16:46 43.600725 -110.738614 110 6426ft 0kts
22-Aug-19 16:47 43.600725 -110.738614 110 6426ft 0kts
22-Aug-19 16:48 43.600725 -110.738614 110 6426ft 0kts
22-Aug-19 16:49 43.600725 -110.738614 110 6426ft 0kts
22-Aug-19 16:50 43.600725 -110.738614 110 6426ft 0kts
22-Aug-19 16:51 43.600725 -110.738613 110 6426ft 0kts
22-Aug-19 16:52 43.600725 -110.738613 110 6426ft 0kts
22-Aug-19 16:53 43.600725 -110.738613 110 6426ft 0kts
22-Aug-19 16:54 43.600725 -110.738613 110 6426ft 0kts
22-Aug-19 16:55 43.600725 -110.738613 110 6426ft 0kts
22-Aug-19 16:56 43.600725 -110.738613 110 6426ft 0kts
22-Aug-19 16:57 43.600725 -110.738613 110 6426ft 0kts
22-Aug-19 16:58 43.600725 -110.738613 110 6426ft 0kts
22-Aug-19 16:59 43.600725 -110.738613 110 6426ft 0kts
22-Aug-19 17:00 43.600725 -110.738613 110 6426ft 0kts
22-Aug-19 17:01 43.600725 -110.738613 110 6426ft 0kts
22-Aug-19 17:02 43.600725 -110.738613 110 6426ft 0kts
22-Aug-19 17:03 43.600725 -110.738613 110 6426ft 0kts
22-Aug-19 17:04 43.601173 -110.738294 356 6426ft 4kts
22-Aug-19 17:05 43.603667 -110.737977 19 6426ft 9kts
22-Aug-19 17:06 43.605567 -110.737011 19 6426ft 13kts
22-Aug-19 17:07 43.609877 -110.734909 20 6426ft 11kts
22-Aug-19 17:08 43.612520 -110.733627 18 6426ft 10kts
22-Aug-19 17:09 43.614578 -110.732608 18 6426ft 0kts
22-Aug-19 17:10 43.614950 -110.732586 333 6426ft 0kts
22-Aug-19 17:11 43.614950 -110.732586 333 6426ft 0kts
22-Aug-19 17:12 43.614950 -110.732586 333 6426ft 0kts
22-Aug-19 17:13 43.614835 -110.734013 199 6426ft 27kts
22-Aug-19 17:14 43.587246 -110.748307 210 7267ft 156kts
22-Aug-19 17:15 43.543223 -110.778564 207 9463ft 202kts
22-Aug-19 17:16 43.490483 -110.813178 206 11597ft 222kts
22-Aug-19 17:17 43.437052 -110.847635 206 13576ft 232kts
22-Aug-19 17:18 43.382274 -110.882903 206 15551ft 235kts
22-Aug-19 17:19 43.321318 -110.922178 206 17733ft 230kts
22-Aug-19 17:20 43.263158 -110.959543 206 19062ft 245kts
22-Aug-19 17:21 43.194394 -110.974965 155 19075ft 293kts
22-Aug-19 17:22 43.117918 -110.930648 162 19053ft 305kts
22-Aug-19 17:23 43.038534 -110.886215 162 19053ft 310kts
22-Aug-19 17:24 42.958503 -110.841367 162 19052ft 312kts
22-Aug-19 17:25 42.878345 -110.796552 162 19057ft 312kts
22-Aug-19 17:26 42.798242 -110.751839 162 19057ft 314kts
22-Aug-19 17:27 42.717935 -110.707132 162 19056ft 314kts
22-Aug-19 17:28 42.636899 -110.662156 162 19064ft 313kts
22-Aug-19 17:29 42.556100 -110.617424 162 19073ft 313kts
22-Aug-19 17:30 42.475370 -110.572810 162 19074ft 312kts
22-Aug-19 17:31 42.394988 -110.528593 162 19073ft 311kts
22-Aug-19 17:32 42.314721 -110.484550 161 19073ft 310kts
22-Aug-19 17:33 42.235923 -110.441293 161 20067ft 296kts
22-Aug-19 17:34 42.160206 -110.399699 162 21267ft 295kts
22-Aug-19 17:35 42.082858 -110.357453 164 22386ft 311kts
22-Aug-19 17:36 41.999378 -110.312570 164 23497ft 331kts
22-Aug-19 17:37 41.911792 -110.265183 164 24590ft 342kts
22-Aug-19 17:38 41.823554 -110.217514 163 25683ft 347kts
22-Aug-19 17:39 41.732727 -110.168649 163 26795ft 350kts
22-Aug-19 17:40 41.640155 -110.119242 162 27101ft 364kts
22-Aug-19 17:41 41.545985 -110.068609 162 27100ft 363kts
22-Aug-19 17:42 41.451289 -110.018095 162 27103ft 377kts
22-Aug-19 17:43 41.352425 -109.965606 162 27101ft 388kts
22-Aug-19 17:44 41.259727 -109.916408 162 27095ft 393kts
22-Aug-19 17:45 41.157227 -109.862292 162 26997ft 397kts
22-Aug-19 17:46 41.060048 -109.811054 162 26953ft 399kts
22-Aug-19 17:47 40.954312 -109.755627 162 26954ft 400kts
22-Aug-19 17:48 40.850535 -109.701384 162 26956ft 401kts
22-Aug-19 17:49 40.746012 -109.646948 161 26956ft 402kts
22-Aug-19 17:50 40.641380 -109.592629 161 26956ft 403kts
22-Aug-19 17:51 40.537094 -109.538601 161 26956ft 404kts
22-Aug-19 17:52 40.432349 -109.484585 161 26956ft 404kts
22-Aug-19 17:53 40.327442 -109.430593 161 26956ft 404kts
22-Aug-19 17:54 40.222532 -109.376816 161 26956ft 405kts
22-Aug-19 17:55 40.117638 -109.323238 162 26952ft 404kts
22-Aug-19 17:56 40.012569 -109.269763 161 26952ft 404kts
22-Aug-19 17:57 39.907585 -109.216591 161 26952ft 403kts
22-Aug-19 17:58 39.802954 -109.163601 161 26954ft 403kts
22-Aug-19 17:59 39.698089 -109.110734 161 26956ft 403kts
22-Aug-19 18:00 39.594100 -109.058530 161 26961ft 402kts
22-Aug-19 18:01 39.491600 -109.006917 162 27000ft 403kts
22-Aug-19 18:02 39.388965 -108.956078 161 26957ft 403kts
22-Aug-19 18:03 39.284516 -108.904003 161 26954ft 402kts
22-Aug-19 18:04 39.180704 -108.852475 161 26954ft 401kts
22-Aug-19 18:05 39.079260 -108.802301 161 26954ft 400kts
22-Aug-19 18:06 38.976971 -108.748697 160 26984ft 399kts
22-Aug-19 18:07 38.875315 -108.694606 161 27033ft 396kts
22-Aug-19 18:08 38.775939 -108.642414 160 26052ft 379kts
22-Aug-19 18:09 38.679933 -108.591776 160 25063ft 371kts
22-Aug-19 18:10 38.584665 -108.541733 160 23881ft 370kts
22-Aug-19 18:11 38.491059 -108.492675 160 22387ft 356kts
22-Aug-19 18:12 38.400961 -108.445653 160 20899ft 348kts
22-Aug-19 18:13 38.313046 -108.399990 160 19394ft 331kts
22-Aug-19 18:14 38.229452 -108.356447 160 17898ft 314kts
22-Aug-19 18:15 38.154511 -108.317620 161 16380ft 290kts
22-Aug-19 18:16 38.080695 -108.279417 161 15734ft 272kts
22-Aug-19 18:17 38.042455 -108.210918 66 15761ft 289kts
22-Aug-19 18:18 38.106943 -108.207150 305 15797ft 272kts
22-Aug-19 18:19 38.140312 -108.293923 292 15435ft 284kts
22-Aug-19 18:20 38.174590 -108.388958 292 14239ft 299kts
22-Aug-19 18:21 38.167912 -108.477378 207 12965ft 285kts
22-Aug-19 18:22 38.104113 -108.429356 136 12750ft 303kts
22-Aug-19 18:23 38.061196 -108.334879 112 12745ft 328kts
22-Aug-19 18:24 38.033096 -108.232494 115 12739ft 291kts
22-Aug-19 18:26 38.009405 -108.136960 109 12836ft 276kts
22-Aug-19 18:27 37.986420 -108.042306 109 11702ft 275kts
22-Aug-19 18:28 37.964489 -107.960578 105 9929ft 204kts
22-Aug-19 18:29 37.953489 -107.907074 106 9065ft 37kts
22-Aug-19 18:30 37.953565 -107.901426 330 9074ft 6kts
22-Aug-19 18:31 37.953825 -107.901843 282 9074ft 0kts
22-Aug-19 18:32 37.953825 -107.901843 282 9074ft 0kts

Navigation Log

Ident Type
Flight plan parsing failed, navigation log unavailable